createdAt,value
2022-10-07T00:01:14.419Z,9.34
2022-10-07T00:03:42.792Z,9.33
2022-10-07T00:06:17.191Z,9.33
2022-10-07T00:08:48.978Z,9.30
2022-10-07T00:11:21.587Z,9.28
2022-10-07T00:13:54.007Z,9.27
2022-10-07T00:16:25.556Z,9.27
2022-10-07T00:18:58.560Z,9.27
2022-10-07T00:21:29.586Z,9.28
2022-10-07T00:23:58.560Z,9.28
2022-10-07T00:26:29.530Z,9.29
2022-10-07T00:28:58.129Z,9.27
2022-10-07T00:31:32.612Z,9.26
2022-10-07T00:34:03.516Z,9.25
2022-10-07T00:36:35.682Z,9.24
2022-10-07T00:39:07.249Z,9.25
2022-10-07T00:41:40.188Z,9.25
2022-10-07T00:44:36.131Z,9.23
2022-10-07T00:47:15.031Z,9.22
2022-10-07T00:49:50.791Z,9.19
2022-10-07T00:52:23.109Z,9.18
2022-10-07T00:54:55.116Z,9.17
2022-10-07T00:57:25.892Z,9.18
2022-10-07T00:59:55.697Z,9.17
2022-10-07T01:02:25.865Z,9.17
2022-10-07T01:04:56.478Z,9.16
2022-10-07T01:07:25.642Z,9.16
2022-10-07T01:09:56.371Z,9.15
2022-10-07T01:12:59.410Z,9.14
2022-10-07T01:15:42.782Z,9.12
2022-10-07T01:18:28.473Z,9.11
2022-10-07T01:21:12.117Z,9.11
2022-10-07T01:23:56.150Z,9.10
2022-10-07T01:26:55.477Z,9.07
2022-10-07T01:29:35.828Z,9.06
2022-10-07T01:32:19.641Z,9.04
2022-10-07T01:34:51.430Z,9.03
2022-10-07T01:37:24.069Z,9.01
2022-10-07T01:39:58.617Z,9.01
2022-10-07T01:42:28.058Z,8.98
2022-10-07T01:44:58.867Z,8.95
2022-10-07T01:47:27.318Z,8.94
2022-10-07T01:49:55.976Z,8.92
2022-10-07T01:52:51.625Z,8.92
2022-10-07T01:55:45.397Z,8.91
2022-10-07T01:58:45.761Z,8.88
2022-10-07T02:01:26.883Z,8.86
2022-10-07T02:04:21.446Z,8.86
2022-10-07T02:06:57.188Z,8.83
2022-10-07T02:09:41.237Z,8.84
2022-10-07T02:12:36.258Z,8.80
2022-10-07T02:15:15.542Z,8.78
2022-10-07T02:17:52.449Z,8.78
2022-10-07T02:20:25.458Z,8.76
2022-10-07T02:22:58.093Z,8.74
2022-10-07T02:25:33.742Z,8.73
2022-10-07T02:28:06.629Z,8.73
2022-10-07T02:30:38.005Z,8.72
2022-10-07T02:33:08.318Z,8.71
2022-10-07T02:35:52.293Z,8.69
2022-10-07T02:38:22.591Z,8.69
2022-10-07T02:40:51.789Z,8.68
2022-10-07T02:43:49.162Z,8.69
2022-10-07T02:46:26.447Z,8.70
2022-10-07T02:48:59.749Z,8.70
2022-10-07T02:51:38.847Z,8.70
2022-10-07T02:54:07.381Z,8.70
2022-10-07T02:56:38.614Z,8.71
2022-10-07T02:59:11.079Z,8.72
2022-10-07T03:01:46.581Z,8.71
2022-10-07T03:04:16.155Z,8.70
2022-10-07T03:06:45.669Z,8.71
2022-10-07T03:09:14.186Z,8.71
2022-10-07T03:11:43.412Z,8.71
2022-10-07T03:14:12.826Z,8.72
2022-10-07T03:16:42.025Z,8.71
2022-10-07T03:19:11.062Z,8.72
2022-10-07T03:21:54.322Z,8.71
2022-10-07T03:24:22.917Z,8.73
2022-10-07T03:26:52.092Z,8.73
2022-10-07T03:29:21.069Z,8.73
2022-10-07T03:31:49.956Z,8.73
2022-10-07T03:34:18.291Z,8.72
2022-10-07T03:36:48.982Z,8.74
2022-10-07T03:39:18.246Z,8.72
2022-10-07T03:41:48.944Z,8.72
2022-10-07T03:44:19.389Z,8.72
2022-10-07T03:46:51.836Z,8.70
2022-10-07T03:49:22.159Z,8.71
2022-10-07T03:51:51.186Z,8.70
2022-10-07T03:54:21.223Z,8.68
2022-10-07T03:56:49.962Z,8.67
2022-10-07T03:59:18.316Z,8.67
2022-10-07T04:01:47.458Z,8.66
2022-10-07T04:04:16.044Z,8.66
2022-10-07T04:06:45.540Z,8.65
2022-10-07T04:09:16.167Z,8.65
2022-10-07T04:11:46.138Z,8.65
2022-10-07T04:14:14.899Z,8.63
2022-10-07T04:16:43.431Z,8.62
2022-10-07T04:19:14.336Z,8.62
2022-10-07T04:21:44.455Z,8.61
2022-10-07T04:24:13.045Z,8.59
2022-10-07T04:26:41.963Z,8.59
2022-10-07T04:29:10.545Z,8.58
2022-10-07T04:31:39.893Z,8.56
2022-10-07T04:34:08.586Z,8.57
2022-10-07T04:36:41.107Z,8.56
2022-10-07T04:39:13.442Z,8.56
2022-10-07T04:41:48.298Z,8.55
2022-10-07T04:44:21.745Z,8.54
2022-10-07T04:46:56.942Z,8.53
2022-10-07T04:49:28.140Z,8.52
2022-10-07T04:51:59.037Z,8.51
2022-10-07T04:54:32.324Z,8.49
2022-10-07T04:57:00.897Z,8.49
2022-10-07T04:59:31.615Z,8.48
2022-10-07T05:02:01.281Z,8.48
2022-10-07T05:04:30.788Z,8.47
2022-10-07T05:07:00.858Z,8.47
2022-10-07T05:09:30.974Z,8.46
2022-10-07T05:11:59.275Z,8.47
2022-10-07T05:14:27.875Z,8.47
2022-10-07T05:16:58.443Z,8.47
2022-10-07T05:19:30.901Z,8.47
2022-10-07T05:21:59.456Z,8.48
2022-10-07T05:24:29.021Z,8.46
2022-10-07T05:26:58.485Z,8.46
2022-10-07T05:29:26.930Z,8.45
2022-10-07T05:31:57.188Z,8.42
2022-10-07T05:34:27.514Z,8.43
2022-10-07T05:36:56.710Z,8.39
2022-10-07T05:39:25.205Z,8.39
2022-10-07T05:41:58.910Z,8.37
2022-10-07T05:44:32.449Z,8.36
2022-10-07T05:47:03.229Z,8.36
2022-10-07T05:49:31.726Z,8.36
2022-10-07T05:52:00.818Z,8.37
2022-10-07T05:54:29.050Z,8.37
2022-10-07T05:57:00.402Z,8.38
2022-10-07T05:59:28.753Z,8.38
2022-10-07T06:02:00.721Z,8.38
2022-10-07T06:04:30.079Z,8.41
2022-10-07T06:06:58.483Z,8.42
2022-10-07T06:09:45.585Z,8.44
2022-10-07T06:12:35.331Z,8.45
2022-10-07T06:15:09.849Z,8.47
2022-10-07T06:17:45.188Z,8.50
2022-10-07T06:20:16.450Z,8.52
2022-10-07T06:22:45.970Z,8.55
2022-10-07T06:25:16.703Z,8.57
2022-10-07T06:27:51.094Z,8.62
2022-10-07T06:30:22.867Z,8.65
2022-10-07T06:32:51.575Z,8.69
2022-10-07T06:35:20.095Z,8.73
2022-10-07T06:37:50.422Z,8.78
2022-10-07T06:40:18.775Z,8.82
2022-10-07T06:42:47.311Z,8.88
2022-10-07T06:45:32.579Z,8.94
2022-10-07T06:48:01.873Z,9.01
2022-10-07T06:50:31.181Z,9.05
2022-10-07T06:53:00.461Z,9.11
2022-10-07T06:55:31.681Z,9.20
2022-10-07T06:58:00.569Z,9.26
2022-10-07T07:00:29.304Z,9.34
2022-10-07T07:03:02.311Z,9.39
2022-10-07T07:05:41.326Z,9.46
2022-10-07T07:08:17.285Z,9.53
2022-10-07T07:10:47.288Z,9.57
2022-10-07T07:13:15.750Z,9.61
2022-10-07T07:15:57.764Z,9.64
2022-10-07T07:18:27.258Z,9.69
2022-10-07T07:21:02.360Z,9.76
2022-10-07T07:23:30.863Z,9.83
2022-10-07T07:26:00.640Z,9.94
2022-10-07T07:28:31.457Z,10.03
2022-10-07T07:31:00.066Z,10.15
2022-10-07T07:33:28.649Z,10.32
2022-10-07T07:35:57.607Z,10.59
2022-10-07T07:38:26.310Z,10.92
2022-10-07T07:40:55.946Z,11.31
2022-10-07T07:43:24.383Z,11.67
2022-10-07T07:45:54.116Z,11.97
2022-10-07T07:48:22.618Z,12.24
2022-10-07T07:50:52.025Z,12.53
2022-10-07T07:53:23.163Z,12.77
2022-10-07T07:55:56.566Z,13.02
2022-10-07T07:58:26.327Z,13.21
2022-10-07T08:00:59.050Z,13.38
2022-10-07T08:03:27.561Z,13.56
2022-10-07T08:05:59.773Z,13.75
2022-10-07T08:08:30.207Z,13.94
2022-10-07T08:11:07.365Z,14.13
2022-10-07T08:13:36.550Z,14.31
2022-10-07T08:16:05.622Z,14.41
2022-10-07T08:18:34.199Z,14.49
2022-10-07T08:21:05.193Z,14.60
2022-10-07T08:23:35.808Z,14.72
2022-10-07T08:26:04.829Z,14.80
2022-10-07T08:28:35.362Z,14.87
2022-10-07T08:31:05.543Z,14.91
2022-10-07T08:33:36.847Z,14.97
2022-10-07T08:36:07.339Z,15.04
2022-10-07T08:38:38.113Z,15.13
2022-10-07T08:41:09.888Z,15.20
2022-10-07T08:43:44.181Z,15.26
2022-10-07T08:46:17.008Z,15.29
2022-10-07T08:49:15.466Z,15.40
2022-10-07T08:51:50.694Z,15.40
2022-10-07T08:54:26.051Z,15.43
2022-10-07T08:57:01.450Z,15.41
2022-10-07T08:59:33.223Z,15.43
2022-10-07T09:02:21.335Z,15.39
2022-10-07T09:04:58.941Z,15.33
2022-10-07T09:07:36.594Z,15.25
2022-10-07T09:10:26.364Z,15.16
2022-10-07T09:13:06.198Z,15.09
2022-10-07T09:16:20.272Z,15.00
2022-10-07T09:18:54.081Z,15.01
2022-10-07T09:21:35.812Z,14.97
2022-10-07T09:24:24.632Z,14.94
2022-10-07T09:27:00.943Z,14.87
2022-10-07T09:29:30.391Z,14.84
2022-10-07T09:31:59.063Z,14.81
2022-10-07T09:34:30.028Z,14.85
2022-10-07T09:37:19.720Z,14.85
2022-10-07T09:39:53.635Z,14.86
2022-10-07T09:42:43.270Z,14.88
2022-10-07T09:45:31.997Z,14.93
2022-10-07T09:48:07.619Z,14.97
2022-10-07T09:50:39.399Z,15.00
2022-10-07T09:53:23.319Z,15.03
2022-10-07T09:55:54.121Z,15.08
2022-10-07T09:58:30.969Z,15.14
2022-10-07T10:01:01.671Z,15.21
2022-10-07T10:03:34.609Z,15.25
2022-10-07T10:06:09.923Z,15.28
2022-10-07T10:08:39.089Z,15.32
2022-10-07T10:11:28.421Z,15.39
2022-10-07T10:13:57.075Z,15.45
2022-10-07T10:16:25.448Z,15.47
2022-10-07T10:18:59.386Z,15.49
2022-10-07T10:21:36.863Z,15.53
2022-10-07T10:24:10.561Z,15.51
2022-10-07T10:26:49.684Z,15.54
2022-10-07T10:29:51.758Z,15.58
2022-10-07T10:32:45.581Z,15.64
2022-10-07T10:35:19.673Z,15.76
2022-10-07T10:38:08.701Z,15.83
2022-10-07T10:40:55.137Z,15.89
2022-10-07T10:43:44.814Z,15.95
2022-10-07T10:46:39.483Z,16.01
2022-10-07T10:49:27.775Z,16.06
2022-10-07T10:51:59.247Z,16.14
2022-10-07T10:54:39.677Z,16.25
2022-10-07T10:57:09.665Z,16.30
2022-10-07T11:00:13.279Z,16.40
2022-10-07T11:02:48.799Z,16.40
2022-10-07T11:05:29.344Z,16.43
2022-10-07T11:08:04.986Z,16.46
2022-10-07T11:10:41.706Z,16.48
2022-10-07T11:13:12.992Z,16.49
2022-10-07T11:15:48.849Z,16.57
2022-10-07T11:18:27.933Z,16.66
2022-10-07T11:20:59.595Z,16.65
2022-10-07T11:23:57.961Z,16.66
2022-10-07T11:26:58.846Z,16.68
2022-10-07T11:29:49.528Z,16.64
2022-10-07T11:32:31.273Z,16.62
2022-10-07T11:35:21.501Z,16.70
2022-10-07T11:38:00.955Z,16.72
2022-10-07T11:40:33.624Z,16.75
2022-10-07T11:43:14.519Z,16.70
2022-10-07T11:45:49.931Z,16.60
2022-10-07T11:48:39.076Z,16.67
2022-10-07T11:51:15.659Z,16.70
2022-10-07T11:53:44.934Z,16.76
2022-10-07T11:56:24.977Z,16.91
2022-10-07T11:59:03.474Z,17.00
2022-10-07T12:01:36.697Z,17.05
2022-10-07T12:04:29.969Z,17.11
2022-10-07T12:07:32.576Z,17.07
2022-10-07T12:10:03.493Z,17.04
2022-10-07T12:12:43.940Z,17.04
2022-10-07T12:15:27.680Z,16.98
2022-10-07T12:18:17.475Z,16.86
2022-10-07T12:20:55.773Z,16.74
2022-10-07T12:23:28.324Z,16.74
2022-10-07T12:26:30.722Z,16.78
2022-10-07T12:28:59.446Z,16.74
2022-10-07T12:31:30.621Z,16.74
2022-10-07T12:34:09.226Z,16.71
2022-10-07T12:36:41.051Z,16.65
2022-10-07T12:39:09.818Z,16.61
2022-10-07T12:41:42.949Z,16.66
2022-10-07T12:44:44.486Z,16.70
2022-10-07T12:47:25.387Z,16.76
2022-10-07T12:49:59.046Z,16.77
2022-10-07T12:52:51.454Z,16.81
2022-10-07T12:55:35.208Z,16.82
2022-10-07T12:58:37.439Z,16.82
2022-10-07T13:01:20.842Z,16.81
2022-10-07T13:04:18.742Z,16.79
2022-10-07T13:07:06.298Z,16.71
2022-10-07T13:09:46.610Z,16.74
2022-10-07T13:12:23.970Z,16.75
2022-10-07T13:15:13.184Z,16.75
2022-10-07T13:17:46.244Z,16.80
2022-10-07T13:20:24.053Z,16.82
2022-10-07T13:22:52.865Z,16.78
2022-10-07T13:25:21.528Z,16.74
2022-10-07T13:27:55.746Z,16.72
2022-10-07T13:30:42.071Z,16.70
2022-10-07T13:33:15.829Z,16.67
2022-10-07T13:35:44.276Z,16.65
2022-10-07T13:38:21.721Z,16.61
2022-10-07T13:41:05.167Z,16.57
2022-10-07T13:43:36.321Z,16.51
2022-10-07T13:46:09.269Z,16.52
2022-10-07T13:48:45.346Z,16.52
2022-10-07T13:51:24.213Z,16.53
2022-10-07T13:53:56.363Z,16.53
2022-10-07T13:56:39.891Z,16.51
2022-10-07T13:59:14.622Z,16.46
2022-10-07T14:01:44.654Z,16.43
2022-10-07T14:04:28.909Z,16.40
2022-10-07T14:06:58.415Z,16.36
2022-10-07T14:09:47.090Z,16.34
2022-10-07T14:12:35.524Z,16.34
2022-10-07T14:15:29.543Z,16.33
2022-10-07T14:18:10.630Z,16.28
2022-10-07T14:20:49.237Z,16.27
2022-10-07T14:23:28.366Z,16.23
2022-10-07T14:26:02.330Z,16.20
2022-10-07T14:28:32.835Z,16.17
2022-10-07T14:31:23.123Z,16.18
2022-10-07T14:34:29.422Z,16.22
2022-10-07T14:37:09.759Z,16.20
2022-10-07T14:39:49.445Z,16.16
2022-10-07T14:42:26.596Z,16.13
2022-10-07T14:44:57.441Z,16.14
2022-10-07T14:47:28.280Z,16.14
2022-10-07T14:50:00.556Z,16.15
2022-10-07T14:52:29.958Z,16.13
2022-10-07T14:55:05.601Z,16.13
2022-10-07T14:57:34.216Z,16.11
2022-10-07T15:00:03.629Z,16.12
2022-10-07T15:02:32.023Z,16.10
2022-10-07T15:05:01.590Z,16.09
2022-10-07T15:07:31.019Z,16.07
2022-10-07T15:09:59.551Z,16.03
2022-10-07T15:12:29.522Z,15.96
2022-10-07T15:14:57.760Z,15.92
2022-10-07T15:17:25.995Z,15.88
2022-10-07T15:19:54.284Z,15.84
2022-10-07T15:22:22.490Z,15.80
2022-10-07T15:24:51.335Z,15.77
2022-10-07T15:27:19.780Z,15.74
2022-10-07T15:29:50.507Z,15.71
2022-10-07T15:32:18.744Z,15.68
2022-10-07T15:34:48.792Z,15.65
2022-10-07T15:37:17.654Z,15.62
2022-10-07T15:39:45.978Z,15.59
2022-10-07T15:42:15.456Z,15.56
2022-10-07T15:44:44.952Z,15.53
2022-10-07T15:47:13.643Z,15.51
2022-10-07T15:49:41.948Z,15.51
2022-10-07T15:52:11.627Z,15.49
2022-10-07T15:54:40.878Z,15.46
2022-10-07T15:57:09.109Z,15.43
2022-10-07T15:59:37.485Z,15.43
2022-10-07T16:02:06.436Z,15.41
2022-10-07T16:04:35.398Z,15.38
2022-10-07T16:07:03.854Z,15.35
2022-10-07T16:09:32.181Z,15.33
2022-10-07T16:12:00.417Z,15.30
2022-10-07T16:14:28.708Z,15.29
2022-10-07T16:16:59.958Z,15.26
2022-10-07T16:19:28.666Z,15.24
2022-10-07T16:21:56.994Z,15.23
2022-10-07T16:24:25.267Z,15.20
2022-10-07T16:26:55.581Z,15.18
2022-10-07T16:29:42.363Z,15.16
2022-10-07T16:32:11.534Z,15.13
2022-10-07T16:34:43.456Z,15.12
2022-10-07T16:37:12.601Z,15.08
2022-10-07T16:39:43.040Z,15.02
2022-10-07T16:42:11.363Z,14.98
2022-10-07T16:44:39.724Z,14.96
2022-10-07T16:47:08.058Z,14.93
2022-10-07T16:49:36.901Z,14.92
2022-10-07T16:52:06.392Z,14.90
2022-10-07T16:54:35.486Z,14.89
2022-10-07T16:57:06.440Z,14.89
2022-10-07T16:59:35.402Z,14.88
2022-10-07T17:02:05.182Z,14.87
2022-10-07T17:04:33.441Z,14.85
2022-10-07T17:07:02.765Z,14.85
2022-10-07T17:09:31.025Z,14.84
2022-10-07T17:11:59.506Z,14.81
2022-10-07T17:14:31.630Z,14.80
2022-10-07T17:17:00.437Z,14.80
2022-10-07T17:19:29.193Z,14.77
2022-10-07T17:21:59.670Z,14.75
2022-10-07T17:24:28.074Z,14.73
2022-10-07T17:26:56.417Z,14.71
2022-10-07T17:29:26.521Z,14.69
2022-10-07T17:31:56.493Z,14.68
2022-10-07T17:34:24.796Z,14.67
2022-10-07T17:36:54.195Z,14.67
2022-10-07T17:39:22.706Z,14.64
2022-10-07T17:41:51.013Z,14.62
2022-10-07T17:44:21.451Z,14.60
2022-10-07T17:46:50.187Z,14.60
2022-10-07T17:49:18.542Z,14.59
2022-10-07T17:51:46.854Z,14.57
2022-10-07T17:54:15.250Z,14.57
2022-10-07T17:56:47.845Z,14.57
2022-10-07T17:59:16.873Z,14.56
2022-10-07T18:01:45.667Z,14.55
2022-10-07T18:04:19.970Z,14.53
2022-10-07T18:06:50.674Z,14.53
2022-10-07T18:09:19.652Z,14.52
2022-10-07T18:12:06.564Z,14.50
2022-10-07T18:14:54.293Z,14.49
2022-10-07T18:17:22.829Z,14.47
2022-10-07T18:19:51.169Z,14.46
2022-10-07T18:22:19.742Z,14.45
2022-10-07T18:24:47.994Z,14.45
2022-10-07T18:27:16.279Z,14.41
2022-10-07T18:29:44.551Z,14.40
2022-10-07T18:32:12.937Z,14.39
2022-10-07T18:34:41.302Z,14.36
2022-10-07T18:37:09.579Z,14.36
2022-10-07T18:39:38.788Z,14.32
2022-10-07T18:42:07.845Z,14.31
2022-10-07T18:44:36.119Z,14.28
2022-10-07T18:47:04.445Z,14.24
2022-10-07T18:49:32.676Z,14.20
2022-10-07T18:52:01.093Z,14.16
2022-10-07T18:54:29.531Z,14.13
2022-10-07T18:56:57.887Z,14.11
2022-10-07T18:59:26.160Z,14.10
2022-10-07T19:01:54.738Z,14.09
2022-10-07T19:04:23.148Z,14.07
2022-10-07T19:06:51.419Z,14.04
2022-10-07T19:09:21.354Z,14.01
2022-10-07T19:11:49.807Z,13.98
2022-10-07T19:14:18.258Z,13.95
2022-10-07T19:16:49.691Z,13.93
2022-10-07T19:19:20.273Z,13.92
2022-10-07T19:21:51.637Z,13.92
2022-10-07T19:24:21.003Z,13.90
2022-10-07T19:26:50.431Z,13.90
2022-10-07T19:29:18.846Z,13.91
2022-10-07T19:31:49.874Z,13.90
2022-10-07T19:34:21.078Z,13.89
2022-10-07T19:36:50.310Z,13.88
2022-10-07T19:39:20.734Z,13.86
2022-10-07T19:41:51.151Z,13.84
2022-10-07T19:44:19.484Z,13.82
2022-10-07T19:46:50.737Z,13.80
2022-10-07T19:49:19.029Z,13.78
2022-10-07T19:51:47.392Z,13.76
2022-10-07T19:54:15.897Z,13.72
2022-10-07T19:56:45.298Z,13.71
2022-10-07T19:59:14.980Z,13.67
2022-10-07T20:01:45.386Z,13.63
2022-10-07T20:04:17.592Z,13.61
2022-10-07T20:06:46.480Z,13.58
2022-10-07T20:09:17.199Z,13.54
2022-10-07T20:11:46.860Z,13.50
2022-10-07T20:14:16.158Z,13.48
2022-10-07T20:16:44.677Z,13.47
2022-10-07T20:19:15.907Z,13.48
2022-10-07T20:21:44.495Z,13.47
2022-10-07T20:24:15.496Z,13.48
2022-10-07T20:26:44.421Z,13.48
2022-10-07T20:29:15.952Z,13.47
2022-10-07T20:31:45.025Z,13.49
2022-10-07T20:34:16.596Z,13.48
2022-10-07T20:36:44.879Z,13.47
2022-10-07T20:39:39.057Z,13.46
2022-10-07T20:42:22.286Z,13.44
2022-10-07T20:44:51.530Z,13.41
2022-10-07T20:47:21.794Z,13.37
2022-10-07T20:49:51.674Z,13.33
2022-10-07T20:52:22.372Z,13.30
2022-10-07T20:54:51.271Z,13.26
2022-10-07T20:57:27.896Z,13.22
2022-10-07T20:59:56.728Z,13.19
2022-10-07T21:02:25.583Z,13.17
2022-10-07T21:04:53.951Z,13.14
2022-10-07T21:07:22.495Z,13.11
2022-10-07T21:09:52.759Z,13.10
2022-10-07T21:12:21.088Z,13.06
2022-10-07T21:14:49.835Z,13.04
2022-10-07T21:17:18.123Z,13.02
2022-10-07T21:19:46.858Z,13.00
2022-10-07T21:22:15.083Z,12.97
2022-10-07T21:24:43.537Z,12.96
2022-10-07T21:27:11.909Z,12.92
2022-10-07T21:29:41.398Z,12.89
2022-10-07T21:32:10.917Z,12.86
2022-10-07T21:34:39.674Z,12.83
2022-10-07T21:37:08.244Z,12.81
2022-10-07T21:39:38.104Z,12.81
2022-10-07T21:42:06.428Z,12.81
2022-10-07T21:44:35.593Z,12.81
2022-10-07T21:47:05.020Z,12.82
2022-10-07T21:49:33.662Z,12.82
2022-10-07T21:52:01.957Z,12.81
2022-10-07T21:54:30.615Z,12.79
2022-10-07T21:56:59.134Z,12.77
2022-10-07T21:59:27.405Z,12.75
2022-10-07T22:01:55.830Z,12.73
2022-10-07T22:04:24.965Z,12.71
2022-10-07T22:07:13.506Z,12.72
2022-10-07T22:09:42.154Z,12.71
2022-10-07T22:12:10.482Z,12.73
2022-10-07T22:14:39.561Z,12.74
2022-10-07T22:17:08.264Z,12.77
2022-10-07T22:19:36.555Z,12.79
2022-10-07T22:22:04.811Z,12.82
2022-10-07T22:24:34.275Z,12.86
2022-10-07T22:27:03.487Z,12.87
2022-10-07T22:29:31.910Z,12.91
2022-10-07T22:32:00.120Z,12.92
2022-10-07T22:34:46.954Z,12.93
2022-10-07T22:37:15.371Z,12.95
2022-10-07T22:39:43.768Z,12.97
2022-10-07T22:42:12.096Z,12.98
2022-10-07T22:44:40.329Z,12.99
2022-10-07T22:47:08.741Z,13.00
2022-10-07T22:49:37.082Z,13.00
2022-10-07T22:52:05.281Z,13.01
2022-10-07T22:54:36.269Z,13.03
2022-10-07T22:57:07.408Z,13.04
2022-10-07T22:59:38.699Z,13.02
2022-10-07T23:02:07.547Z,13.03
2022-10-07T23:04:35.755Z,13.04
2022-10-07T23:07:03.985Z,13.02
2022-10-07T23:09:32.284Z,13.02
2022-10-07T23:12:00.698Z,13.02
2022-10-07T23:14:28.977Z,12.99
2022-10-07T23:16:57.274Z,12.99
2022-10-07T23:19:25.585Z,13.00
2022-10-07T23:21:53.836Z,12.99
2022-10-07T23:24:22.116Z,12.99
2022-10-07T23:26:50.435Z,12.97
2022-10-07T23:29:19.664Z,12.95
2022-10-07T23:31:47.896Z,12.91
2022-10-07T23:34:16.671Z,12.90
2022-10-07T23:36:45.210Z,12.90
2022-10-07T23:39:13.525Z,12.90
2022-10-07T23:41:42.135Z,12.88
2022-10-07T23:44:10.405Z,12.87
2022-10-07T23:46:39.715Z,12.84
2022-10-07T23:49:08.043Z,12.85
2022-10-07T23:51:36.300Z,12.83
2022-10-07T23:54:05.227Z,12.78
2022-10-07T23:56:33.604Z,12.71
2022-10-07T23:59:02.467Z,12.60
